createdAt,value
2017-03-22T00:01:03.096Z,73.92
2017-03-22T00:02:13.352Z,74.02
2017-03-22T00:03:23.609Z,73.64
2017-03-22T00:04:33.552Z,73.64
2017-03-22T00:05:43.812Z,73.16
2017-03-22T00:06:54.067Z,73.26
2017-03-22T00:08:04.011Z,72.97
2017-03-22T00:09:14.271Z,73.64
2017-03-22T00:10:24.532Z,74.96
2017-03-22T00:11:34.493Z,74.11
2017-03-22T00:12:44.751Z,73.73
2017-03-22T00:13:55.020Z,73.54
2017-03-22T00:15:05.281Z,73.41
2017-03-22T00:16:15.537Z,73.69
2017-03-22T00:17:25.483Z,73.69
2017-03-22T00:18:35.740Z,73.79
2017-03-22T00:19:45.999Z,75.49
2017-03-22T00:20:56.260Z,77.58
2017-03-22T00:22:05.901Z,78.33
2017-03-22T00:23:15.849Z,77.95
2017-03-22T00:24:26.109Z,77.67
2017-03-22T00:25:36.048Z,77.58
2017-03-22T00:26:46.301Z,77.86
2017-03-22T00:27:56.239Z,78.71
2017-03-22T00:29:06.507Z,78.99
2017-03-22T00:30:16.758Z,78.33
2017-03-22T00:31:27.014Z,76.25
2017-03-22T00:32:37.287Z,76.34
2017-03-22T00:33:47.550Z,76.63
2017-03-22T00:34:57.819Z,76.91
2017-03-22T00:36:08.072Z,77.86
2017-03-22T00:37:18.020Z,79.28
2017-03-22T00:38:27.970Z,78.23
2017-03-22T00:39:38.229Z,79.28
2017-03-22T00:40:48.480Z,78.52
2017-03-22T00:41:58.741Z,78.99
2017-03-22T00:43:08.685Z,78.42
2017-03-22T00:44:18.944Z,78.42
2017-03-22T00:45:29.196Z,78.71
2017-03-22T00:46:39.454Z,79.09
2017-03-22T00:47:49.719Z,79.28
2017-03-22T00:48:59.978Z,79.09
2017-03-22T00:50:09.934Z,78.61
2017-03-22T00:51:20.185Z,77.86
2017-03-22T00:52:30.444Z,78.14
2017-03-22T00:53:40.081Z,78.52
2017-03-22T00:54:50.039Z,78.14
2017-03-22T00:56:00.307Z,78.14
2017-03-22T00:57:10.246Z,78.23
2017-03-22T00:58:20.222Z,78.14
2017-03-22T00:59:30.487Z,78.14
2017-03-22T01:00:40.427Z,78.14
2017-03-22T01:01:50.717Z,79.09
2017-03-22T01:03:00.971Z,78.33
2017-03-22T01:04:11.239Z,78.23
2017-03-22T01:05:21.497Z,77.2
2017-03-22T01:06:31.747Z,77.29
2017-03-22T01:07:42.004Z,76.34
2017-03-22T01:08:52.269Z,76.53
2017-03-22T01:10:02.533Z,76.44
2017-03-22T01:11:12.789Z,76.72
2017-03-22T01:12:22.733Z,76.34
2017-03-22T01:13:33.030Z,76.53
2017-03-22T01:14:43.290Z,76.25
2017-03-22T01:15:53.549Z,75.96
2017-03-22T01:17:03.179Z,77.2
2017-03-22T01:18:13.442Z,77.2
2017-03-22T01:19:23.694Z,76.91
2017-03-22T01:20:33.946Z,76.25
2017-03-22T01:21:44.199Z,76.44
2017-03-22T01:22:54.144Z,76.06
2017-03-22T01:24:04.403Z,75.96
2017-03-22T01:25:14.674Z,76.25
2017-03-22T01:26:24.927Z,77.95
2017-03-22T01:27:34.549Z,78.05
2017-03-22T01:28:44.820Z,77.67
2017-03-22T01:29:55.081Z,77.95
2017-03-22T01:31:05.026Z,77.29
2017-03-22T01:32:14.997Z,78.42
2017-03-22T01:33:25.254Z,78.42
2017-03-22T01:34:35.515Z,79.28
2017-03-22T01:35:45.765Z,79.94
2017-03-22T01:36:55.391Z,78.9
2017-03-22T01:38:05.644Z,78.95
2017-03-22T01:39:15.907Z,78.67
2017-03-22T01:40:26.173Z,78.71
2017-03-22T01:41:36.111Z,79.61
2017-03-22T01:42:46.366Z,79.33
2017-03-22T01:43:56.642Z,79.33
2017-03-22T01:45:06.903Z,79.61
2017-03-22T01:46:17.168Z,79.52
2017-03-22T01:47:27.109Z,79.52
2017-03-22T01:48:37.363Z,80.56
2017-03-22T01:49:47.624Z,81.32
2017-03-22T01:50:57.876Z,81.6
2017-03-22T01:52:08.132Z,81.7
2017-03-22T01:53:18.387Z,81.22
2017-03-22T01:54:28.017Z,83.11
2017-03-22T01:55:38.270Z,82.73
2017-03-22T01:56:48.205Z,83.49
2017-03-22T01:57:57.521Z,83.21
2017-03-22T01:59:07.794Z,82.35
2017-03-22T02:00:18.056Z,81.98
2017-03-22T02:01:28.306Z,80.75
2017-03-22T02:02:38.814Z,77.91
2017-03-22T02:03:49.069Z,78.2
2017-03-22T02:04:59.335Z,79.05
2017-03-22T02:06:09.270Z,79.9
2017-03-22T02:07:18.895Z,80.18
2017-03-22T02:08:28.843Z,79.8
2017-03-22T02:09:39.100Z,77.44
2017-03-22T02:10:49.356Z,79.43
2017-03-22T02:11:59.610Z,80.18
2017-03-22T02:13:08.927Z,80.98
2017-03-22T02:14:18.871Z,79.94
2017-03-22T02:15:28.810Z,77.76
2017-03-22T02:16:38.756Z,77.25
2017-03-22T02:17:49.015Z,76.06
2017-03-22T02:18:59.270Z,76.78
2017-03-22T02:20:09.218Z,76.25
2017-03-22T02:21:19.476Z,76.06
2017-03-22T02:22:29.722Z,72.18
2017-03-22T02:23:39.979Z,71.23
2017-03-22T02:24:49.926Z,73.6
2017-03-22T02:26:00.196Z,75.02
2017-03-22T02:27:10.135Z,75.12
2017-03-22T02:28:20.391Z,75.78
2017-03-22T02:29:30.339Z,75.21
2017-03-22T02:30:40.595Z,73.32
2017-03-22T02:31:50.541Z,73.5
2017-03-22T02:33:00.481Z,71.9
2017-03-22T02:34:10.738Z,72.37
2017-03-22T02:35:20.994Z,71.23
2017-03-22T02:36:30.939Z,71.14
2017-03-22T02:37:41.193Z,72.09
2017-03-22T02:38:51.455Z,72.94
2017-03-22T02:40:01.766Z,74.07
2017-03-22T02:41:11.739Z,75.21
2017-03-22T02:42:21.685Z,75.68
2017-03-22T02:43:31.632Z,75.59
2017-03-22T02:44:41.902Z,75.02
2017-03-22T02:45:51.856Z,75.31
2017-03-22T02:47:02.109Z,74.93
2017-03-22T02:48:12.364Z,74.45
2017-03-22T02:49:22.626Z,74.74
2017-03-22T02:50:32.570Z,73.98
2017-03-22T02:51:42.518Z,73.32
2017-03-22T02:52:52.779Z,72.18
2017-03-22T02:54:02.748Z,71.9
2017-03-22T02:55:12.383Z,71.71
2017-03-22T02:56:22.634Z,72.28
2017-03-22T02:57:32.919Z,70.86
2017-03-22T02:58:42.559Z,69.91
2017-03-22T02:59:52.810Z,69.44
2017-03-22T03:01:03.083Z,68.49
2017-03-22T03:02:13.370Z,68.12
2017-03-22T03:03:23.308Z,68.02
2017-03-22T03:04:33.567Z,67.17
2017-03-22T03:05:43.822Z,66.31
2017-03-22T03:06:53.456Z,65.84
2017-03-22T03:08:03.719Z,66.6
2017-03-22T03:09:13.979Z,64.83
2017-03-22T03:10:24.241Z,64.61
2017-03-22T03:11:34.178Z,65.21
2017-03-22T03:12:44.439Z,66.16
2017-03-22T03:13:54.708Z,67.2
2017-03-22T03:15:04.963Z,69
2017-03-22T03:16:14.904Z,70.57
2017-03-22T03:17:24.535Z,71.8
2017-03-22T03:18:34.786Z,73.13
2017-03-22T03:19:45.088Z,73.32
2017-03-22T03:20:55.350Z,73.5
2017-03-22T03:22:05.289Z,74.36
2017-03-22T03:23:14.916Z,75.31
2017-03-22T03:24:25.176Z,74.83
2017-03-22T03:25:35.118Z,74.83
2017-03-22T03:26:45.061Z,75.21
2017-03-22T03:27:55.314Z,76.25
2017-03-22T03:29:05.584Z,76.25
2017-03-22T03:30:15.840Z,77.01
2017-03-22T03:31:26.094Z,76.59
2017-03-22T03:32:36.355Z,76.59
2017-03-22T03:33:46.618Z,76.68
2017-03-22T03:34:56.560Z,76.21
2017-03-22T03:36:06.503Z,76.31
2017-03-22T03:37:16.784Z,76.4
2017-03-22T03:38:26.409Z,76.78
2017-03-22T03:39:36.676Z,76.59
2017-03-22T03:40:46.929Z,77.15
2017-03-22T03:41:57.184Z,76.78
2017-03-22T03:43:07.436Z,77.06
2017-03-22T03:44:17.378Z,77.25
2017-03-22T03:45:27.318Z,76.97
2017-03-22T03:46:37.570Z,77.25
2017-03-22T03:47:47.823Z,77.34
2017-03-22T03:48:58.082Z,77.53
2017-03-22T03:50:07.710Z,77.72
2017-03-22T03:51:17.964Z,77.72
2017-03-22T03:52:27.900Z,77.44
2017-03-22T03:53:38.159Z,77.25
2017-03-22T03:54:48.100Z,78.2
2017-03-22T03:55:58.050Z,78.86
2017-03-22T03:57:07.991Z,78.48
2017-03-22T03:58:18.242Z,77.91
2017-03-22T03:59:28.294Z,78.29
2017-03-22T04:00:38.544Z,78.01
2017-03-22T04:01:48.788Z,78.67
2017-03-22T04:02:59.040Z,78.48
2017-03-22T04:04:09.301Z,77.91
2017-03-22T04:05:19.242Z,77.72
2017-03-22T04:06:29.496Z,77.25
2017-03-22T04:07:39.432Z,76.97
2017-03-22T04:08:49.704Z,77.44
2017-03-22T04:09:59.963Z,77.72
2017-03-22T04:11:12.218Z,77.44
2017-03-22T04:12:22.470Z,77.15
2017-03-22T04:13:32.098Z,77.34
2017-03-22T04:14:42.357Z,77.63
2017-03-22T04:15:52.302Z,77.25
2017-03-22T04:17:02.554Z,77.34
2017-03-22T04:18:12.859Z,76.78
2017-03-22T04:19:23.120Z,76.31
2017-03-22T04:20:33.377Z,76.02
2017-03-22T04:21:43.347Z,76.4
2017-03-22T04:22:53.603Z,77.25
2017-03-22T04:24:03.548Z,77.15
2017-03-22T04:25:13.817Z,77.15
2017-03-22T04:26:24.073Z,77.63
2017-03-22T04:27:34.355Z,78.1
2017-03-22T04:28:44.301Z,77.34
2017-03-22T04:29:54.567Z,76.87
2017-03-22T04:31:04.824Z,76.31
2017-03-22T04:32:15.085Z,76.68
2017-03-22T04:33:24.725Z,76.21
2017-03-22T04:34:34.991Z,76.02
2017-03-22T04:35:45.253Z,76.4
2017-03-22T04:36:55.503Z,76.59
2017-03-22T04:38:05.445Z,76.87
2017-03-22T04:39:15.696Z,76.12
2017-03-22T04:40:25.955Z,76.21
2017-03-22T04:41:36.204Z,76.02
2017-03-22T04:42:46.500Z,76.02
2017-03-22T04:43:56.754Z,76.4
2017-03-22T04:45:07.010Z,76.59
2017-03-22T04:46:16.947Z,76.59
2017-03-22T04:47:26.886Z,76.12
2017-03-22T04:48:37.139Z,76.78
2017-03-22T04:49:47.399Z,76.31
2017-03-22T04:50:57.664Z,77.15
2017-03-22T04:52:07.914Z,77.44
2017-03-22T04:53:18.177Z,77.4
2017-03-22T04:54:28.444Z,78.06
2017-03-22T04:55:38.389Z,77.21
2017-03-22T04:56:48.648Z,78.34
2017-03-22T04:57:58.905Z,77.12
2017-03-22T04:59:09.169Z,77.12
2017-03-22T05:00:19.426Z,77.4
2017-03-22T05:01:29.712Z,77.4
2017-03-22T05:02:39.962Z,77.5
2017-03-22T05:03:49.908Z,78.06
2017-03-22T05:04:59.853Z,78.06
2017-03-22T05:06:09.474Z,78.34
2017-03-22T05:07:19.420Z,78.06
2017-03-22T05:08:29.684Z,78.25
2017-03-22T05:09:39.968Z,77.97
2017-03-22T05:10:49.903Z,77.59
2017-03-22T05:12:00.151Z,77.31
2017-03-22T05:13:10.406Z,77.31
2017-03-22T05:14:20.673Z,77.21
2017-03-22T05:15:30.927Z,77.31
2017-03-22T05:16:41.183Z,77.21
2017-03-22T05:17:51.444Z,76.74
2017-03-22T05:19:01.707Z,77.02
2017-03-22T05:20:11.964Z,76.45
2017-03-22T05:21:21.899Z,76.74
2017-03-22T05:22:32.170Z,76.55
2017-03-22T05:23:42.430Z,76.45
2017-03-22T05:24:52.396Z,76.83
2017-03-22T05:26:02.338Z,76.45
2017-03-22T05:27:12.274Z,75.79
2017-03-22T05:28:22.522Z,75.6
2017-03-22T05:29:32.795Z,75.07
2017-03-22T05:30:43.048Z,75.17
2017-03-22T05:31:52.668Z,75.07
2017-03-22T05:33:02.603Z,74.69
2017-03-22T05:34:12.861Z,74.51
2017-03-22T05:35:23.124Z,74.51
2017-03-22T05:36:33.386Z,73.85
2017-03-22T05:37:43.326Z,73.28
2017-03-22T05:38:53.271Z,73.47
2017-03-22T05:40:03.529Z,72.05
2017-03-22T05:41:13.160Z,71.58
2017-03-22T05:42:23.412Z,70.82
2017-03-22T05:43:33.717Z,70.54
2017-03-22T05:44:43.977Z,70.63
2017-03-22T05:45:54.223Z,71.86
2017-03-22T05:47:04.162Z,72.14
2017-03-22T05:48:14.428Z,71.67
2017-03-22T05:49:24.687Z,71.95
2017-03-22T05:50:34.630Z,71.11
2017-03-22T05:51:44.568Z,70.63
2017-03-22T05:52:54.188Z,70.86
2017-03-22T05:54:04.447Z,70.35
2017-03-22T05:55:14.399Z,70.2
2017-03-22T05:56:24.671Z,70.29
2017-03-22T05:57:33.984Z,70.2
2017-03-22T05:58:44.238Z,69.91
2017-03-22T05:59:54.498Z,68.87
2017-03-22T06:01:04.775Z,69.91
2017-03-22T06:02:14.715Z,69.34
2017-03-22T06:03:24.969Z,69.44
2017-03-22T06:04:35.229Z,68.96
2017-03-22T06:05:45.169Z,69.06
2017-03-22T06:06:55.115Z,69.63
2017-03-22T06:08:05.376Z,69.34
2017-03-22T06:09:15.008Z,69.44
2017-03-22T06:10:25.276Z,70.1
2017-03-22T06:11:35.532Z,69.91
2017-03-22T06:12:44.845Z,69.06
2017-03-22T06:13:55.101Z,69.63
2017-03-22T06:15:05.363Z,69.34
2017-03-22T06:16:15.004Z,70.29
2017-03-22T06:17:25.258Z,69.44
2017-03-22T06:18:35.510Z,69.63
2017-03-22T06:19:45.446Z,70.01
2017-03-22T06:20:55.706Z,69.44
2017-03-22T06:22:05.646Z,69.72
2017-03-22T06:23:15.912Z,69.25
2017-03-22T06:24:26.173Z,69.34
2017-03-22T06:25:36.428Z,69.44
2017-03-22T06:26:46.053Z,70.1
2017-03-22T06:27:56.043Z,70.2
2017-03-22T06:29:06.304Z,71.04
2017-03-22T06:30:16.559Z,70.57
2017-03-22T06:31:29.485Z,70.39
2017-03-22T06:32:39.738Z,70.1
2017-03-22T06:33:49.997Z,69.72
2017-03-22T06:34:59.945Z,70.67
2017-03-22T06:36:10.205Z,70.39
2017-03-22T06:37:20.151Z,69.63
2017-03-22T06:38:30.405Z,69.82
2017-03-22T06:39:40.662Z,69.15
2017-03-22T06:40:50.601Z,67.74
2017-03-22T06:42:00.546Z,67.83
2017-03-22T06:43:10.492Z,67.45
2017-03-22T06:44:20.436Z,67.64
2017-03-22T06:45:30.720Z,67.55
2017-03-22T06:46:40.664Z,66.79
2017-03-22T06:47:50.967Z,66.88
2017-03-22T06:49:01.223Z,66.5
2017-03-22T06:50:11.504Z,66.69
2017-03-22T06:51:21.790Z,66.88
2017-03-22T06:52:32.041Z,66.88
2017-03-22T06:53:42.302Z,66.6
2017-03-22T06:54:52.561Z,66.13
2017-03-22T06:56:02.199Z,66.03
2017-03-22T06:57:12.139Z,66.31
2017-03-22T06:58:22.086Z,65.84
2017-03-22T06:59:32.345Z,66.03
2017-03-22T07:00:41.972Z,66.79
2017-03-22T07:01:52.225Z,66.5
2017-03-22T07:03:02.165Z,66.5
2017-03-22T07:04:12.426Z,67.64
2017-03-22T07:05:22.057Z,67.17
2017-03-22T07:06:32.313Z,66.5
2017-03-22T07:07:42.574Z,67.64
2017-03-22T07:08:52.571Z,67.45
2017-03-22T07:10:02.249Z,66.98
2017-03-22T07:11:12.514Z,67.07
2017-03-22T07:12:22.771Z,66.79
2017-03-22T07:13:33.027Z,66.79
2017-03-22T07:14:43.300Z,66.79
2017-03-22T07:15:53.242Z,65.84
2017-03-22T07:17:03.492Z,66.03
2017-03-22T07:18:13.754Z,67.17
2017-03-22T07:19:24.014Z,67.49
2017-03-22T07:20:34.280Z,67.93
2017-03-22T07:21:44.533Z,67.49
2017-03-22T07:22:54.790Z,66.88
2017-03-22T07:24:04.731Z,67.07
2017-03-22T07:25:14.669Z,66.82
2017-03-22T07:26:24.290Z,67.01
2017-03-22T07:27:34.550Z,68.05
2017-03-22T07:28:44.813Z,67.11
2017-03-22T07:29:55.074Z,67.96
2017-03-22T07:31:05.019Z,68.33
2017-03-22T07:32:15.285Z,69.95
2017-03-22T07:33:25.545Z,70.14
2017-03-22T07:34:35.817Z,69.95
2017-03-22T07:35:46.073Z,69.09
2017-03-22T07:36:56.015Z,67.86
2017-03-22T07:38:06.273Z,67.77
2017-03-22T07:39:16.529Z,68.62
2017-03-22T07:40:26.802Z,68.52
2017-03-22T07:41:37.055Z,67.11
2017-03-22T07:42:47.001Z,66.82
2017-03-22T07:43:56.947Z,67.58
2017-03-22T07:45:07.205Z,67.01
2017-03-22T07:46:17.149Z,66.35
2017-03-22T07:47:27.410Z,67.01
2017-03-22T07:48:37.677Z,65.88
2017-03-22T07:49:47.325Z,66.53
2017-03-22T07:50:57.584Z,66.82
2017-03-22T07:52:07.526Z,67.01
2017-03-22T07:53:17.773Z,64.93
2017-03-22T07:54:28.034Z,65.12
2017-03-22T07:55:38.285Z,66.44
2017-03-22T07:56:48.539Z,65.78
2017-03-22T07:57:58.797Z,65.97
2017-03-22T07:59:08.121Z,65.21
2017-03-22T08:00:18.438Z,65.88
2017-03-22T08:01:28.694Z,64.45
2017-03-22T08:02:38.697Z,64.36
2017-03-22T08:03:48.641Z,64.07
2017-03-22T08:04:58.272Z,64.17
2017-03-22T08:06:08.530Z,62.94
2017-03-22T08:07:18.475Z,63.32
2017-03-22T08:08:28.423Z,63.7
2017-03-22T08:09:38.686Z,63.35
2017-03-22T08:10:48.990Z,63.92
2017-03-22T08:11:59.263Z,63.45
2017-03-22T08:13:09.208Z,62.31
2017-03-22T08:14:19.477Z,61.65
2017-03-22T08:15:29.430Z,61.27
2017-03-22T08:16:39.685Z,61.65
2017-03-22T08:17:49.941Z,63.45
2017-03-22T08:19:00.200Z,62.4
2017-03-22T08:20:10.147Z,62.31
2017-03-22T08:21:20.407Z,62.5
2017-03-22T08:22:30.655Z,63.73
2017-03-22T08:23:40.920Z,62.4
2017-03-22T08:24:51.187Z,63.16
2017-03-22T08:26:01.140Z,63.73
2017-03-22T08:27:11.389Z,61.93
2017-03-22T08:28:21.646Z,61.74
2017-03-22T08:29:31.605Z,60.13
2017-03-22T08:30:41.569Z,60.89
2017-03-22T08:31:51.518Z,61.27
2017-03-22T08:33:01.777Z,62.21
2017-03-22T08:34:12.036Z,61.27
2017-03-22T08:35:22.294Z,60.89
2017-03-22T08:36:32.554Z,60.13
2017-03-22T08:37:42.804Z,59.66
2017-03-22T08:38:53.065Z,59.84
2017-03-22T08:40:03.321Z,58.52
2017-03-22T08:41:13.256Z,58.24
2017-03-22T08:42:23.197Z,59
2017-03-22T08:43:33.468Z,59.28
2017-03-22T08:44:43.422Z,58.05
2017-03-22T08:45:53.672Z,58.05
2017-03-22T08:47:03.617Z,57.29
2017-03-22T08:48:13.874Z,58.14
2017-03-22T08:49:23.822Z,60.03
2017-03-22T08:50:34.113Z,58.9
2017-03-22T08:51:44.364Z,58.62
2017-03-22T08:52:54.307Z,58.74
2017-03-22T08:54:04.561Z,58.24
2017-03-22T08:55:14.829Z,57.32
2017-03-22T08:56:24.764Z,57.23
2017-03-22T08:57:35.014Z,57.32
2017-03-22T08:58:44.962Z,56.94
2017-03-22T08:59:54.909Z,56.63
2017-03-22T09:01:04.532Z,57.89
2017-03-22T09:02:14.482Z,57.32
2017-03-22T09:03:24.110Z,56.66
2017-03-22T09:04:34.363Z,56.85
2017-03-22T09:05:43.997Z,55.8
2017-03-22T09:06:54.245Z,55.71
2017-03-22T09:08:04.498Z,58.07
2017-03-22T09:09:14.751Z,58.36
2017-03-22T09:10:25.002Z,57.89
2017-03-22T09:11:35.257Z,57.23
2017-03-22T09:12:45.263Z,56.27
2017-03-22T09:13:54.888Z,54.95
2017-03-22T09:15:04.837Z,56.27
2017-03-22T09:16:15.094Z,57.51
2017-03-22T09:17:25.349Z,55.99
2017-03-22T09:18:35.287Z,55.43
2017-03-22T09:19:45.542Z,55.8
2017-03-22T09:20:55.797Z,56.09
2017-03-22T09:22:06.059Z,54.19
2017-03-22T09:23:15.999Z,56.18
2017-03-22T09:24:26.249Z,56.27
2017-03-22T09:25:36.508Z,56.09
2017-03-22T09:26:46.764Z,55.24
2017-03-22T09:27:56.700Z,55.62
2017-03-22T09:29:06.971Z,55.9
2017-03-22T09:30:17.232Z,56.85
2017-03-22T09:31:27.179Z,56.85
2017-03-22T09:32:37.432Z,55.33
2017-03-22T09:33:47.379Z,54.1
2017-03-22T09:34:57.634Z,53.44
2017-03-22T09:36:07.575Z,54.1
2017-03-22T09:37:17.212Z,57.23
2017-03-22T09:38:27.464Z,55.71
2017-03-22T09:39:37.729Z,54.1
2017-03-22T09:40:47.675Z,55.17
2017-03-22T09:41:57.927Z,53.84
2017-03-22T09:43:08.202Z,53.94
2017-03-22T09:44:18.455Z,53.84
2017-03-22T09:45:28.709Z,54.13
2017-03-22T09:46:38.966Z,54.69
2017-03-22T09:47:48.596Z,55.36
2017-03-22T09:48:58.529Z,55.74
2017-03-22T09:50:08.484Z,56.87
2017-03-22T09:51:18.421Z,54.03
2017-03-22T09:52:28.674Z,52.23
2017-03-22T09:53:38.612Z,50.62
2017-03-22T09:54:48.547Z,50.99
2017-03-22T09:55:58.492Z,51.37
2017-03-22T09:57:08.442Z,52.51
2017-03-22T09:58:17.766Z,53.65
2017-03-22T09:59:28.038Z,53.56
2017-03-22T10:00:38.295Z,52.14
2017-03-22T10:01:47.922Z,53.84
2017-03-22T10:02:57.903Z,51.85
2017-03-22T10:04:07.525Z,53.08
2017-03-22T10:05:17.779Z,53.94
2017-03-22T10:06:28.030Z,54.41
2017-03-22T10:07:37.663Z,53.18
2017-03-22T10:08:47.923Z,53.08
2017-03-22T10:09:58.177Z,52.14
2017-03-22T10:11:07.487Z,52.51
2017-03-22T10:12:16.795Z,51.95
2017-03-22T10:13:26.772Z,54.79
2017-03-22T10:14:37.025Z,53.84
2017-03-22T10:15:46.998Z,53.18
2017-03-22T10:16:57.255Z,53.75
2017-03-22T10:18:07.195Z,54.03
2017-03-22T10:19:17.141Z,54.13
2017-03-22T10:20:27.408Z,53.84
2017-03-22T10:21:37.659Z,53.96
2017-03-22T10:22:47.290Z,53.84
2017-03-22T10:23:57.224Z,53.2
2017-03-22T10:25:07.478Z,54.15
2017-03-22T10:26:17.735Z,52.73
2017-03-22T10:27:27.675Z,53.77
2017-03-22T10:28:37.929Z,53.2
2017-03-22T10:29:48.191Z,52.06
2017-03-22T10:30:58.449Z,50.55
2017-03-22T10:32:08.386Z,50.74
2017-03-22T10:33:18.644Z,50.93
2017-03-22T10:34:28.585Z,50.93
2017-03-22T10:35:38.218Z,50.17
2017-03-22T10:36:48.166Z,48.46
2017-03-22T10:37:58.414Z,48.75
2017-03-22T10:39:08.354Z,48.46
2017-03-22T10:40:18.612Z,48.36
2017-03-22T10:41:28.865Z,49.79
2017-03-22T10:42:38.491Z,48.84
2017-03-22T10:43:48.752Z,48.94
2017-03-22T10:44:58.411Z,48.84
2017-03-22T10:46:08.037Z,48.58
2017-03-22T10:47:18.295Z,48.75
2017-03-22T10:48:28.247Z,48.49
2017-03-22T10:49:38.504Z,48.2
2017-03-22T10:50:48.443Z,47.92
2017-03-22T10:51:58.704Z,46.21
2017-03-22T10:53:08.645Z,46.49
2017-03-22T10:54:18.584Z,46.3
2017-03-22T10:55:28.831Z,47.53
2017-03-22T10:56:39.090Z,49.72
2017-03-22T10:57:49.354Z,49.63
2017-03-22T10:58:59.612Z,47.73
2017-03-22T11:00:09.867Z,48.68
2017-03-22T11:01:20.124Z,48.2
2017-03-22T11:02:30.077Z,50.1
2017-03-22T11:03:40.329Z,47.73
2017-03-22T11:04:50.267Z,46.78
2017-03-22T11:06:00.521Z,45.83
2017-03-22T11:07:10.778Z,47.44
2017-03-22T11:08:21.034Z,49.24
2017-03-22T11:09:31.290Z,49.63
2017-03-22T11:10:41.544Z,48.49
2017-03-22T11:11:51.802Z,45.95
2017-03-22T11:13:02.064Z,45.66
2017-03-22T11:14:12.005Z,47.75
2017-03-22T11:15:21.954Z,46.35
2017-03-22T11:16:32.214Z,46
2017-03-22T11:17:42.158Z,42.97
2017-03-22T11:18:52.105Z,43.07
2017-03-22T11:20:02.361Z,41.95
2017-03-22T11:21:12.627Z,40.43
2017-03-22T11:22:22.576Z,42.43
2017-03-22T11:23:32.835Z,41.21
2017-03-22T11:24:42.818Z,41.21
2017-03-22T11:25:53.083Z,38.83
2017-03-22T11:27:03.338Z,40.06
2017-03-22T11:28:12.972Z,38.37
2017-03-22T11:29:23.233Z,38.47
2017-03-22T11:30:33.497Z,36.39
2017-03-22T11:31:43.761Z,35.63
2017-03-22T11:32:53.398Z,36.3
2017-03-22T11:34:03.353Z,35.55
2017-03-22T11:35:13.622Z,36.98
2017-03-22T11:36:23.580Z,37.46
2017-03-22T11:37:33.857Z,39.06
2017-03-22T11:38:44.119Z,39.17
2017-03-22T11:39:54.421Z,37.66
2017-03-22T11:41:04.373Z,38.73
2017-03-22T11:42:14.637Z,36.96
2017-03-22T11:43:24.916Z,35.43
2017-03-22T11:44:35.187Z,34.2
2017-03-22T11:45:45.144Z,34.2
2017-03-22T11:46:55.411Z,34.11
2017-03-22T11:48:05.680Z,34.55
2017-03-22T11:49:15.952Z,35.21
2017-03-22T11:50:26.228Z,35.21
2017-03-22T11:51:36.499Z,35.47
2017-03-22T11:52:46.771Z,35.97
2017-03-22T11:53:57.041Z,37.51
2017-03-22T11:55:06.999Z,35.74
2017-03-22T11:56:16.639Z,33.15
2017-03-22T11:57:26.904Z,33.36
2017-03-22T11:58:37.174Z,34.3
2017-03-22T11:59:47.445Z,32.2
2017-03-22T12:00:57.401Z,34.19
2017-03-22T12:02:07.360Z,35.91
2017-03-22T12:03:17.689Z,31.84
2017-03-22T12:04:27.967Z,32.68
2017-03-22T12:05:38.233Z,32.86
2017-03-22T12:06:48.509Z,34.28
2017-03-22T12:07:58.467Z,35.13
2017-03-22T12:09:07.795Z,34.25
2017-03-22T12:10:18.062Z,36.81
2017-03-22T12:11:28.029Z,37.17
2017-03-22T12:12:38.310Z,39.34
2017-03-22T12:13:48.582Z,38.66
2017-03-22T12:14:58.851Z,38.85
2017-03-22T12:16:08.181Z,39.14
2017-03-22T12:17:18.448Z,38.78
2017-03-22T12:18:28.085Z,38.96
2017-03-22T12:19:38.352Z,37.63
2017-03-22T12:20:48.619Z,38.66
2017-03-22T12:21:58.572Z,39.14
2017-03-22T12:23:08.215Z,39.99
2017-03-22T12:24:18.168Z,39.42
2017-03-22T12:25:28.121Z,39.31
2017-03-22T12:26:38.386Z,39.5
2017-03-22T12:27:48.646Z,40.9
2017-03-22T12:28:58.599Z,43.28
2017-03-22T12:30:08.546Z,46.42
2017-03-22T12:31:18.495Z,48.58
2017-03-22T12:32:28.762Z,48.85
2017-03-22T12:33:38.813Z,49.51
2017-03-22T12:34:49.079Z,50.18
2017-03-22T12:35:59.339Z,50.37
2017-03-22T12:37:08.972Z,50.74
2017-03-22T12:38:18.924Z,49.89
2017-03-22T12:39:29.182Z,50.18
2017-03-22T12:40:39.447Z,51.1
2017-03-22T12:41:49.088Z,52.33
2017-03-22T12:42:59.348Z,53.09
2017-03-22T12:44:08.981Z,52.4
2017-03-22T12:45:18.921Z,51.17
2017-03-22T12:46:28.866Z,51.93
2017-03-22T12:47:39.123Z,54.11
2017-03-22T12:48:49.382Z,55.35
2017-03-22T12:49:59.643Z,57.4
2017-03-22T12:51:09.908Z,56.84
2017-03-22T12:52:19.550Z,57.31
2017-03-22T12:53:29.497Z,58.07
2017-03-22T12:54:39.478Z,58.7
2017-03-22T12:55:49.426Z,59.56
2017-03-22T12:56:59.061Z,59.94
2017-03-22T12:58:09.318Z,60.25
2017-03-22T12:59:18.954Z,61.46
2017-03-22T13:00:28.898Z,62.69
2017-03-22T13:01:38.526Z,63.35
2017-03-22T13:02:48.822Z,64.4
2017-03-22T13:03:58.449Z,64.59
2017-03-22T13:05:07.767Z,65.53
2017-03-22T13:06:17.746Z,65.91
2017-03-22T13:07:28.005Z,66.64
2017-03-22T13:08:37.949Z,66.64
2017-03-22T13:09:48.214Z,67.4
2017-03-22T13:10:58.192Z,69.57
2017-03-22T13:12:08.447Z,68.63
2017-03-22T13:13:18.708Z,68.35
2017-03-22T13:14:28.968Z,69.57
2017-03-22T13:15:38.913Z,68.54
2017-03-22T13:16:48.860Z,67.4
2017-03-22T13:17:59.118Z,67.21
2017-03-22T13:19:09.066Z,67.4
2017-03-22T13:20:18.754Z,66.35
2017-03-22T13:21:28.399Z,66.07
2017-03-22T13:22:38.669Z,65.88
2017-03-22T13:23:48.929Z,66.16
2017-03-22T13:24:59.186Z,67.11
2017-03-22T13:26:09.132Z,66.93
2017-03-22T13:27:18.764Z,67.81
2017-03-22T13:28:29.021Z,67.62
2017-03-22T13:29:39.283Z,68.38
2017-03-22T13:30:49.540Z,67.43
2017-03-22T13:31:59.176Z,66.58
2017-03-22T13:33:09.132Z,66.67
2017-03-22T13:34:18.767Z,66.96
2017-03-22T13:35:29.028Z,66.96
2017-03-22T13:36:38.976Z,66.67
2017-03-22T13:37:49.236Z,65.06
2017-03-22T13:38:59.507Z,65.53
2017-03-22T13:40:09.458Z,65.44
2017-03-22T13:41:19.716Z,64.87
2017-03-22T13:42:29.699Z,64.3
2017-03-22T13:43:39.960Z,64.59
2017-03-22T13:44:49.599Z,65.63
2017-03-22T13:45:59.549Z,65.47
2017-03-22T13:47:09.807Z,64.78
2017-03-22T13:48:19.435Z,64.71
2017-03-22T13:49:29.688Z,64.11
2017-03-22T13:50:39.945Z,63.48
2017-03-22T13:51:50.197Z,63.76
2017-03-22T13:53:00.143Z,64.71
2017-03-22T13:54:10.407Z,64.43
2017-03-22T13:55:20.359Z,63.67
2017-03-22T13:56:30.677Z,63.39
2017-03-22T13:57:40.626Z,63.57
2017-03-22T13:58:50.576Z,63.95
2017-03-22T14:00:00.523Z,64.62
2017-03-22T14:01:10.471Z,63.89
2017-03-22T14:02:20.734Z,61.8
2017-03-22T14:03:30.991Z,60.76
2017-03-22T14:04:41.251Z,60.38
2017-03-22T14:05:51.505Z,60.28
2017-03-22T14:07:01.446Z,60.28
2017-03-22T14:08:11.399Z,61.14
2017-03-22T14:09:21.033Z,60.69
2017-03-22T14:10:30.981Z,60.13
2017-03-22T14:11:41.238Z,60.5
2017-03-22T14:12:51.498Z,60.69
2017-03-22T14:14:00.499Z,61.65
2017-03-22T14:15:10.131Z,61.17
2017-03-22T14:16:20.078Z,60.28
2017-03-22T14:17:30.333Z,61.14
2017-03-22T14:18:40.597Z,59.71
2017-03-22T14:19:50.860Z,60.47
2017-03-22T14:21:00.811Z,61.17
2017-03-22T14:22:11.068Z,59.65
2017-03-22T14:23:21.014Z,58.8
2017-03-22T14:24:30.961Z,58.7
2017-03-22T14:25:41.225Z,57.94
2017-03-22T14:26:51.532Z,59.17
2017-03-22T14:28:01.163Z,59.17
2017-03-22T14:29:10.801Z,59.43
2017-03-22T14:30:21.060Z,59.27
2017-03-22T14:31:30.695Z,60.1
2017-03-22T14:32:40.643Z,59.17
2017-03-22T14:33:50.902Z,59.74
2017-03-22T14:35:00.847Z,58.32
2017-03-22T14:36:10.475Z,59.27
2017-03-22T14:37:20.421Z,58.2
2017-03-22T14:38:30.682Z,58.95
2017-03-22T14:39:40.942Z,60
2017-03-22T14:40:50.887Z,58.86
2017-03-22T14:42:00.518Z,59.81
2017-03-22T14:43:10.475Z,60.19
2017-03-22T14:44:20.734Z,60.47
2017-03-22T14:45:31.029Z,59.91
2017-03-22T14:46:40.974Z,61.99
2017-03-22T14:47:51.236Z,61.23
2017-03-22T14:49:01.204Z,60.1
2017-03-22T14:50:10.840Z,61.52
2017-03-22T14:51:20.782Z,62.34
2017-03-22T14:52:30.735Z,62.05
2017-03-22T14:53:40.685Z,62.53
2017-03-22T14:54:50.942Z,61.58
2017-03-22T14:56:00.882Z,60.53
2017-03-22T14:57:11.133Z,61.58
2017-03-22T14:58:21.077Z,61.68
2017-03-22T14:59:30.722Z,63.01
2017-03-22T15:00:40.668Z,63.86
2017-03-22T15:01:50.609Z,61.2
2017-03-22T15:03:00.558Z,58.83
2017-03-22T15:04:10.506Z,60.06
2017-03-22T15:05:20.455Z,60.53
2017-03-22T15:06:30.405Z,60.35